createdAt,value
2019-04-27T00:03:44.871Z,8.6
2019-04-27T00:08:46.961Z,8.6
2019-04-27T00:13:49.447Z,8.6
2019-04-27T00:23:54.360Z,8.5
2019-04-27T00:28:56.789Z,8.4
2019-04-27T00:33:59.160Z,8.4
2019-04-27T00:39:01.674Z,8.3
2019-04-27T00:44:04.157Z,8.4
2019-04-27T00:49:06.570Z,8.4
2019-04-27T00:54:09.191Z,8.4
2019-04-27T00:59:11.411Z,8.4
2019-04-27T01:09:16.273Z,8.3
2019-04-27T01:14:18.737Z,8.3
2019-04-27T01:19:21.130Z,8.3
2019-04-27T01:24:23.583Z,8.2
2019-04-27T01:29:26.066Z,8.3
2019-04-27T01:34:29.492Z,8.3
2019-04-27T01:39:30.914Z,8.3
2019-04-27T01:44:33.348Z,8.4
2019-04-27T01:49:35.799Z,8.3
2019-04-27T01:54:39.247Z,8.3
2019-04-27T01:59:40.732Z,8.3
2019-04-27T02:04:43.119Z,8.3
2019-04-27T02:09:45.752Z,8.3
2019-04-27T02:14:49.050Z,8.3
2019-04-27T02:19:50.442Z,8.3
2019-04-27T02:24:53.293Z,8.3
2019-04-27T02:29:55.319Z,8.3
2019-04-27T02:34:59.814Z,8.3
2019-04-27T02:40:00.452Z,8.2
2019-04-27T02:50:05.226Z,8.3
2019-04-27T02:55:09.511Z,8.3
2019-04-27T03:00:10.532Z,8.3
2019-04-27T03:05:13.053Z,8.4
2019-04-27T03:10:14.848Z,8.4
2019-04-27T03:15:17.345Z,8.4
2019-04-27T03:20:20.269Z,8.4
2019-04-27T03:25:22.188Z,8.4
2019-04-27T03:30:24.632Z,8.4
2019-04-27T03:35:31.993Z,8.5
2019-04-27T03:45:32.056Z,8.4
2019-04-27T03:50:34.356Z,8.4
2019-04-27T03:55:39.684Z,8.4
2019-04-27T04:00:39.906Z,8.4
2019-04-27T04:05:41.671Z,8.4
2019-04-27T04:10:44.106Z,8.4
2019-04-27T04:15:46.540Z,8.5
2019-04-27T04:20:50.486Z,8.5
2019-04-27T04:30:53.853Z,8.4
2019-04-27T04:35:56.326Z,8.4
2019-04-27T04:40:59.367Z,8.4
2019-04-27T04:46:01.270Z,8.4
2019-04-27T04:51:03.636Z,8.5
2019-04-27T04:56:06.183Z,8.5
2019-04-27T05:01:09.844Z,8.5
2019-04-27T05:06:10.991Z,8.5
2019-04-27T05:11:13.498Z,8.4
2019-04-27T05:16:15.819Z,8.5
2019-04-27T05:21:18.571Z,8.5
2019-04-27T05:26:20.893Z,8.6
2019-04-27T05:31:23.141Z,8.6
2019-04-27T05:36:25.694Z,8.7
2019-04-27T05:41:31.069Z,8.7
2019-04-27T05:46:35.366Z,8.7
2019-04-27T05:51:37.042Z,8.8
2019-04-27T05:56:35.425Z,8.8
2019-04-27T06:01:38.875Z,8.9
2019-04-27T06:06:40.239Z,9
2019-04-27T06:11:42.697Z,9.2
2019-04-27T06:16:45.117Z,9.3
2019-04-27T06:21:47.554Z,9.3
2019-04-27T06:26:50.053Z,9.5
2019-04-27T06:31:52.456Z,9.6
2019-04-27T06:36:54.913Z,9.7
2019-04-27T06:41:59.012Z,9.7
2019-04-27T06:47:00.285Z,9.8
2019-04-27T06:52:02.189Z,10
2019-04-27T06:57:04.713Z,10.1
2019-04-27T07:02:08.686Z,10.2
2019-04-27T07:07:09.888Z,10.2
2019-04-27T07:12:11.944Z,10.2
2019-04-27T07:17:14.602Z,10.2
2019-04-27T07:22:16.925Z,10.3
2019-04-27T07:27:21.258Z,10.5
2019-04-27T07:32:21.724Z,10.7
2019-04-27T07:37:24.282Z,10.9
2019-04-27T07:42:26.636Z,11
2019-04-27T07:52:31.489Z,11.1
2019-04-27T07:57:33.902Z,11
2019-04-27T08:02:36.559Z,11.1
2019-04-27T08:07:39.215Z,11
2019-04-27T08:12:41.295Z,11
2019-04-27T08:17:43.733Z,11
2019-04-27T08:22:46.159Z,11.2
2019-04-27T08:27:49.301Z,11.4
2019-04-27T08:32:50.999Z,11.4
2019-04-27T08:37:53.541Z,11.6
2019-04-27T08:42:55.938Z,11.7
2019-04-27T08:47:59.436Z,11.8
2019-04-27T08:53:00.899Z,12
2019-04-27T08:58:03.228Z,12.1
2019-04-27T09:03:05.987Z,12.2
2019-04-27T09:08:08.693Z,12.3
2019-04-27T09:13:10.640Z,12.3
2019-04-27T09:18:12.975Z,12.5
2019-04-27T09:23:15.429Z,12.7
2019-04-27T09:28:20.073Z,13
2019-04-27T09:33:22.223Z,13.1
2019-04-27T09:38:22.734Z,13.2
2019-04-27T09:43:26.357Z,13.3
2019-04-27T09:48:27.710Z,13.4
2019-04-27T09:53:30.128Z,13.5
2019-04-27T09:58:32.506Z,13.5
2019-04-27T10:03:36.009Z,13.5
2019-04-27T10:08:37.403Z,13.5
2019-04-27T10:13:40.064Z,13.6
2019-04-27T10:18:42.340Z,13.8
2019-04-27T10:23:46.839Z,14
2019-04-27T10:28:47.317Z,14.1
2019-04-27T10:33:50.128Z,14
2019-04-27T10:38:52.053Z,14
2019-04-27T10:43:54.497Z,14.1
2019-04-27T10:48:56.963Z,14.3
2019-04-27T10:53:59.318Z,14.2
2019-04-27T10:59:01.795Z,14.2
2019-04-27T11:04:05.921Z,14.2
2019-04-27T11:09:06.843Z,14.4
2019-04-27T11:14:09.114Z,14.7
2019-04-27T11:19:11.658Z,15
2019-04-27T11:24:14.105Z,14.9
2019-04-27T11:29:16.421Z,14.5
2019-04-27T11:34:19.135Z,14.2
2019-04-27T11:39:21.413Z,14.2
2019-04-27T11:44:25.316Z,14.4
2019-04-27T11:49:26.292Z,14.6
2019-04-27T11:54:28.913Z,14.9
2019-04-27T11:59:31.106Z,16
2019-04-27T12:04:33.813Z,16.9
2019-04-27T12:09:35.958Z,17.5
2019-04-27T12:14:38.407Z,17.8
2019-04-27T12:19:40.843Z,18.1
2019-04-27T12:24:43.334Z,18.4
2019-04-27T12:29:47.262Z,18.7
2019-04-27T12:34:48.479Z,18.8
2019-04-27T12:39:50.832Z,18.7
2019-04-27T12:44:53.090Z,19.1
2019-04-27T12:49:57.353Z,19.2
2019-04-27T12:54:57.968Z,18.3
2019-04-27T13:00:00.381Z,17.2
2019-04-27T13:05:03.157Z,16.5
2019-04-27T13:10:05.720Z,16.2
2019-04-27T13:15:07.720Z,16.1
2019-04-27T13:20:10.137Z,16.7
2019-04-27T13:25:12.561Z,16.9
2019-04-27T13:30:16.388Z,16.7
2019-04-27T13:35:17.809Z,16.5
2019-04-27T13:40:19.895Z,16.3
2019-04-27T13:45:22.332Z,16
2019-04-27T13:50:24.757Z,15.8
2019-04-27T13:55:27.275Z,15.7
2019-04-27T14:00:29.643Z,15.6
2019-04-27T14:05:32.425Z,15.4
2019-04-27T14:10:34.545Z,15.2
2019-04-27T14:15:38.792Z,15
2019-04-27T14:20:39.406Z,14.9
2019-04-27T14:25:41.956Z,14.9
2019-04-27T14:30:44.293Z,15.2
2019-04-27T14:35:47.948Z,15.4
2019-04-27T14:40:50.284Z,15.8
2019-04-27T14:45:51.627Z,16.5
2019-04-27T14:50:54.091Z,16.6
2019-04-27T14:55:58.409Z,16.9
2019-04-27T15:00:58.943Z,16.8
2019-04-27T15:06:01.710Z,18.2
2019-04-27T15:16:07.967Z,25.4
2019-04-27T15:21:10.249Z,24.2
2019-04-27T15:26:11.217Z,21.1
2019-04-27T15:31:22.181Z,18.7
2019-04-27T15:36:19.215Z,17
2019-04-27T15:41:19.540Z,15.9
2019-04-27T15:46:20.900Z,15.1
2019-04-27T15:51:23.405Z,14.6
2019-04-27T15:56:26.173Z,14.4
2019-04-27T16:01:29.582Z,14.4
2019-04-27T16:06:31.022Z,14.7
2019-04-27T16:11:33.104Z,15.6
2019-04-27T16:16:35.545Z,17.3
2019-04-27T16:21:39.702Z,20.1
2019-04-27T16:26:41.839Z,19.6
2019-04-27T16:31:42.850Z,19.1
2019-04-27T16:36:45.629Z,17.7
2019-04-27T16:41:49.829Z,16.4
2019-04-27T16:46:50.261Z,15.7
2019-04-27T16:51:52.942Z,15.2
2019-04-27T16:57:02.418Z,14.9
2019-04-27T17:01:57.579Z,14.5
2019-04-27T17:07:00.278Z,14.2
2019-04-27T17:12:02.441Z,13.9
2019-04-27T17:17:08.625Z,13.6
2019-04-27T17:22:10.330Z,13.3
2019-04-27T17:27:11.545Z,12.9
2019-04-27T17:32:12.172Z,12.6
2019-04-27T17:37:15.022Z,12.4
2019-04-27T17:42:18.508Z,12.2
2019-04-27T17:47:25.452Z,12.1
2019-04-27T17:52:21.973Z,12
2019-04-27T17:57:26.455Z,11.9
2019-04-27T18:07:30.133Z,11.6
2019-04-27T18:12:31.669Z,11.5
2019-04-27T18:17:34.183Z,11.5
2019-04-27T18:22:37.804Z,11.4
2019-04-27T18:27:39.001Z,11.3
2019-04-27T18:32:41.414Z,11.2
2019-04-27T18:37:43.907Z,11.2
2019-04-27T18:42:46.385Z,11.1
2019-04-27T18:47:48.776Z,11.1
2019-04-27T18:52:51.240Z,11
2019-04-27T18:57:54.428Z,11
2019-04-27T19:02:56.082Z,10.9
2019-04-27T19:13:00.984Z,10.8
2019-04-27T19:18:03.406Z,10.7
2019-04-27T19:23:05.826Z,10.7
2019-04-27T19:28:08.657Z,10.7
2019-04-27T19:33:10.682Z,10.7
2019-04-27T19:38:13.231Z,10.6
2019-04-27T19:43:15.592Z,10.6
2019-04-27T19:48:18.262Z,10.6
2019-04-27T19:53:20.560Z,10.6
2019-04-27T19:58:23.026Z,10.5
2019-04-27T20:03:25.371Z,10.5
2019-04-27T20:08:27.886Z,10.5
2019-04-27T20:13:30.371Z,10.4
2019-04-27T20:18:32.674Z,10.4
2019-04-27T20:23:35.094Z,10.3
2019-04-27T20:28:38.565Z,10.3
2019-04-27T20:33:41.579Z,10.3
2019-04-27T20:38:42.454Z,10.2
2019-04-27T20:43:44.918Z,10.1
2019-04-27T20:48:47.360Z,10
2019-04-27T20:53:51.574Z,9.8
2019-04-27T20:58:52.534Z,9.7
2019-04-27T21:03:54.625Z,9.5
2019-04-27T21:08:57.058Z,9.5
2019-04-27T21:14:00.995Z,9.4
2019-04-27T21:19:04.882Z,9.3
2019-04-27T21:24:04.780Z,9.3
2019-04-27T21:29:07.375Z,9.3
2019-04-27T21:34:09.542Z,9.2
2019-04-27T21:39:11.686Z,9.1
2019-04-27T21:44:14.175Z,9.1
2019-04-27T21:49:16.652Z,9
2019-04-27T21:54:19.095Z,9
2019-04-27T21:59:21.831Z,8.9
2019-04-27T22:04:23.885Z,8.9
2019-04-27T22:09:26.342Z,8.8
2019-04-27T22:14:28.832Z,8.8
2019-04-27T22:19:31.291Z,8.7
2019-04-27T22:24:33.670Z,8.7
2019-04-27T22:29:36.104Z,8.7
2019-04-27T22:34:38.529Z,8.7
2019-04-27T22:39:40.987Z,8.7
2019-04-27T22:49:45.868Z,8.7
2019-04-27T22:54:48.343Z,8.7
2019-04-27T22:59:50.842Z,8.6
2019-04-27T23:04:53.176Z,8.6
2019-04-27T23:09:55.610Z,8.5
2019-04-27T23:14:58.042Z,8.4
2019-04-27T23:20:01.313Z,8.4
2019-04-27T23:25:02.970Z,8.4
2019-04-27T23:30:05.434Z,8.4
2019-04-27T23:35:07.816Z,8.3
2019-04-27T23:40:11.110Z,8.2
2019-04-27T23:45:12.779Z,8.2
2019-04-27T23:50:15.290Z,8.2
2019-04-27T23:55:17.625Z,8.1
